Time;durP1;ratioP1;P1;durP2;ratioP2;P2;SDS_P1;SDS_P2;PMS_P1;PMS_P2;Temp;Humidity;BMP_temperature;BMP_pressure;BME280_temperature;BME280_humidity;BME280_pressure;Samples;Min_cycle;Max_cycle;Signal;HPM_P1;HPM_P2
2022/10/03 00:02:04;;;;;;;;;;;25.20;99.90;;;;;;4182914;28;19929;-72
2022/10/03 00:04:23;;;;;;;;;;;25.20;99.90;;;;;;4184127;28;19934;-71
2022/10/03 00:06:41;;;;;;;;;;;25.20;99.90;;;;;;4179892;28;20412;-70
2022/10/03 00:08:47;;;;;;;;;;;25.20;99.90;;;;;;4175439;28;19975;-71
2022/10/03 00:10:56;;;;;;;;;;;25.20;99.90;;;;;;4175582;28;20850;-72
2022/10/03 00:13:02;;;;;;;;;;;25.20;99.90;;;;;;4192271;28;19936;-72
2022/10/03 00:15:20;;;;;;;;;;;25.20;99.90;;;;;;4180967;28;19928;-72
2022/10/03 00:17:42;;;;;;;;;;;25.10;99.90;;;;;;4178488;28;19971;-73
2022/10/03 00:20:17;;;;;;;;;;;25.10;99.90;;;;;;4194137;28;19928;-74
2022/10/03 00:22:27;;;;;;;;;;;25.10;99.90;;;;;;4210315;28;20011;-72
2022/10/03 00:24:37;;;;;;;;;;;25.20;99.90;;;;;;4210440;28;19924;-72
2022/10/03 00:26:49;;;;;;;;;;;25.10;99.90;;;;;;4209643;28;20312;-69
2022/10/03 00:29:08;;;;;;;;;;;25.20;99.90;;;;;;4210300;28;19932;-71
2022/10/03 00:31:23;;;;;;;;;;;25.20;99.90;;;;;;4194610;28;19928;-72
2022/10/03 00:33:54;;;;;;;;;;;25.20;99.90;;;;;;4213540;28;19981;-71
2022/10/03 00:36:18;;;;;;;;;;;25.20;99.90;;;;;;4212927;28;19939;-70
2022/10/03 00:38:27;;;;;;;;;;;25.10;99.90;;;;;;4213257;28;19975;-71
2022/10/03 00:40:34;;;;;;;;;;;25.10;99.90;;;;;;4213084;28;19973;-72
2022/10/03 00:42:56;;;;;;;;;;;25.10;99.90;;;;;;4213674;28;19923;-71
2022/10/03 00:45:13;;;;;;;;;;;25.10;99.90;;;;;;4213311;28;19955;-72
2022/10/03 00:47:42;;;;;;;;;;;25.10;99.90;;;;;;4213238;28;20363;-72
2022/10/03 00:49:56;;;;;;;;;;;25.10;99.90;;;;;;4222014;28;19927;-71
2022/10/03 00:52:13;;;;;;;;;;;25.10;99.90;;;;;;4195423;28;19939;-73
2022/10/03 00:54:27;;;;;;;;;;;25.10;99.90;;;;;;4213291;28;19934;-72
2022/10/03 00:56:45;;;;;;;;;;;25.10;99.90;;;;;;4212893;28;20290;-72
2022/10/03 00:58:53;;;;;;;;;;;25.00;99.90;;;;;;4213059;28;19924;-72
2022/10/03 01:01:20;;;;;;;;;;;25.10;99.90;;;;;;4195794;28;19978;-73
2022/10/03 01:03:40;;;;;;;;;;;25.00;99.90;;;;;;4165427;28;20268;-72
2022/10/03 01:05:56;;;;;;;;;;;25.00;99.90;;;;;;4208279;28;19924;-73
2022/10/03 01:08:09;;;;;;;;;;;24.80;99.90;;;;;;4212633;28;20464;-73
2022/10/03 01:10:16;;;;;;;;;;;24.80;99.90;;;;;;4212551;28;19928;-73
2022/10/03 01:12:33;;;;;;;;;;;24.70;99.90;;;;;;4212375;28;19932;-73
2022/10/03 01:14:48;;;;;;;;;;;24.60;99.90;;;;;;4212216;28;19928;-74
2022/10/03 01:17:05;;;;;;;;;;;24.70;99.90;;;;;;4196014;28;19935;-73
2022/10/03 01:19:25;;;;;;;;;;;24.70;99.90;;;;;;4194240;28;19986;-72
2022/10/03 01:21:39;;;;;;;;;;;24.80;99.90;;;;;;4178388;28;19933;-72
2022/10/03 01:23:59;;;;;;;;;;;24.70;99.90;;;;;;4178664;28;20351;-73
2022/10/03 01:26:05;;;;;;;;;;;24.60;99.90;;;;;;4212001;28;20347;-70
2022/10/03 01:30:42;;;;;;;;;;;24.60;99.90;;;;;;4212022;28;19928;-72
2022/10/03 01:33:03;;;;;;;;;;;24.50;99.90;;;;;;4212551;28;19928;-72
2022/10/03 01:35:18;;;;;;;;;;;24.40;99.90;;;;;;4212100;28;19924;-71
2022/10/03 01:37:40;;;;;;;;;;;24.60;99.90;;;;;;4196011;28;20349;-73
2022/10/03 01:39:49;;;;;;;;;;;24.60;99.90;;;;;;4211267;28;19924;-72
2022/10/03 01:42:03;;;;;;;;;;;24.70;99.90;;;;;;4194036;28;20456;-72
2022/10/03 01:44:11;;;;;;;;;;;24.80;99.90;;;;;;4194641;28;19942;-71
2022/10/03 01:46:22;;;;;;;;;;;24.80;99.90;;;;;;4194251;28;20007;-71
2022/10/03 01:48:43;;;;;;;;;;;24.70;99.90;;;;;;4194439;28;19928;-72
2022/10/03 01:51:05;;;;;;;;;;;24.80;99.90;;;;;;4211337;28;19931;-74
2022/10/03 01:53:12;;;;;;;;;;;24.80;99.90;;;;;;4194611;28;20497;-72
2022/10/03 01:55:18;;;;;;;;;;;24.80;99.90;;;;;;4211933;28;19935;-73
2022/10/03 01:57:29;;;;;;;;;;;24.80;99.90;;;;;;4211883;28;20413;-72
2022/10/03 01:59:41;;;;;;;;;;;24.90;99.90;;;;;;4195431;28;20193;-70
2022/10/03 02:01:50;;;;;;;;;;;25.00;99.90;;;;;;4209233;28;19977;-72
2022/10/03 02:04:04;;;;;;;;;;;25.10;99.90;;;;;;4195196;28;20624;-72
2022/10/03 02:06:21;;;;;;;;;;;25.20;99.90;;;;;;4211192;28;19974;-72
2022/10/03 02:08:29;;;;;;;;;;;25.20;99.90;;;;;;4194644;28;19932;-72
2022/10/03 02:10:40;;;;;;;;;;;25.30;99.90;;;;;;4193794;28;19952;-72
2022/10/03 02:13:03;;;;;;;;;;;25.30;99.90;;;;;;4211650;28;19928;-71
2022/10/03 02:15:13;;;;;;;;;;;25.20;99.90;;;;;;4194353;28;19963;-72
2022/10/03 02:17:41;;;;;;;;;;;25.20;99.90;;;;;;4211419;28;20026;-72
2022/10/03 02:19:58;;;;;;;;;;;25.30;99.90;;;;;;4215569;28;19927;-72
2022/10/03 02:22:12;;;;;;;;;;;25.30;99.90;;;;;;4227153;28;19974;-73
2022/10/03 02:24:34;;;;;;;;;;;25.20;99.90;;;;;;4210306;28;19981;-71
2022/10/03 02:26:45;;;;;;;;;;;25.10;99.90;;;;;;4226780;28;20022;-71
2022/10/03 02:29:02;;;;;;;;;;;25.00;99.90;;;;;;4227580;28;19928;-71
2022/10/03 02:31:19;;;;;;;;;;;25.20;99.90;;;;;;4227892;28;19935;-70
2022/10/03 02:33:37;;;;;;;;;;;25.30;99.90;;;;;;4228053;28;20017;-68
2022/10/03 02:35:42;;;;;;;;;;;25.20;99.90;;;;;;4211113;28;19924;-69
2022/10/03 02:38:01;;;;;;;;;;;25.20;99.90;;;;;;4218704;28;19979;-69
2022/10/03 02:40:24;;;;;;;;;;;25.30;99.90;;;;;;4194181;28;19968;-72
2022/10/03 02:43:01;;;;;;;;;;;25.40;99.90;;;;;;4183550;28;20338;-72
2022/10/03 02:45:24;;;;;;;;;;;25.30;99.90;;;;;;4214129;28;19939;-72
2022/10/03 02:47:42;;;;;;;;;;;25.30;99.90;;;;;;4230159;28;19934;-71
2022/10/03 02:49:57;;;;;;;;;;;25.20;99.90;;;;;;4197927;28;19925;-71
2022/10/03 02:52:14;;;;;;;;;;;25.20;99.90;;;;;;4197238;28;19991;-72
2022/10/03 02:54:24;;;;;;;;;;;25.00;99.90;;;;;;4214833;28;19924;-71
2022/10/03 02:56:37;;;;;;;;;;;25.20;99.90;;;;;;4214897;28;20453;-72
2022/10/03 02:58:48;;;;;;;;;;;25.10;99.90;;;;;;4214812;28;20420;-72
2022/10/03 03:00:59;;;;;;;;;;;25.00;99.90;;;;;;4197891;28;19928;-71
2022/10/03 03:03:10;;;;;;;;;;;25.00;99.90;;;;;;4181973;28;19924;-71
2022/10/03 03:05:27;;;;;;;;;;;25.00;99.90;;;;;;4199484;28;19925;-72
2022/10/03 03:07:35;;;;;;;;;;;25.10;99.90;;;;;;4197596;28;19955;-71
2022/10/03 03:09:53;;;;;;;;;;;25.10;99.90;;;;;;4214940;28;20013;-71
2022/10/03 03:12:03;;;;;;;;;;;25.30;99.90;;;;;;4214894;28;20422;-71
2022/10/03 03:14:23;;;;;;;;;;;25.40;99.90;;;;;;4230418;28;19928;-70
2022/10/03 03:16:27;;;;;;;;;;;25.40;99.90;;;;;;4214062;28;19956;-71
2022/10/03 03:18:36;;;;;;;;;;;25.40;99.90;;;;;;4214788;28;19928;-73
2022/10/03 03:20:43;;;;;;;;;;;25.60;99.90;;;;;;4196247;28;20332;-71
2022/10/03 03:22:58;;;;;;;;;;;25.60;99.90;;;;;;4197398;28;20303;-71
2022/10/03 03:25:21;;;;;;;;;;;25.70;99.90;;;;;;4214300;28;19963;-71
2022/10/03 03:27:27;;;;;;;;;;;25.60;99.90;;;;;;4197263;28;19931;-70
2022/10/03 03:29:43;;;;;;;;;;;25.60;99.90;;;;;;4214432;28;19924;-71
2022/10/03 03:32:13;;;;;;;;;;;25.70;99.90;;;;;;4197328;28;19924;-71
2022/10/03 03:34:22;;;;;;;;;;;25.70;99.90;;;;;;4195817;28;20019;-71
2022/10/03 03:36:36;;;;;;;;;;;25.80;99.90;;;;;;4198020;28;19974;-70
2022/10/03 03:39:02;;;;;;;;;;;25.80;99.90;;;;;;4197031;28;20022;-70
2022/10/03 03:41:17;;;;;;;;;;;25.80;99.90;;;;;;4197728;28;20015;-70
2022/10/03 03:43:33;;;;;;;;;;;25.80;99.90;;;;;;4208331;28;20317;-73
2022/10/03 03:45:51;;;;;;;;;;;25.90;99.90;;;;;;4182771;28;19928;-74
2022/10/03 03:48:11;;;;;;;;;;;26.00;99.90;;;;;;4214125;28;19974;-71
2022/10/03 03:50:47;;;;;;;;;;;26.00;99.90;;;;;;4182865;28;19924;-70
2022/10/03 03:53:15;;;;;;;;;;;26.30;99.90;;;;;;4214561;28;19935;-70
2022/10/03 03:55:20;;;;;;;;;;;26.20;99.90;;;;;;4162297;28;19932;-70
2022/10/03 03:57:32;;;;;;;;;;;26.40;99.90;;;;;;4180727;28;20616;-69
2022/10/03 03:59:37;;;;;;;;;;;26.50;99.90;;;;;;4203329;28;20640;-71
2022/10/03 04:01:45;;;;;;;;;;;26.50;99.90;;;;;;4196622;28;19928;-68
2022/10/03 04:04:15;;;;;;;;;;;26.60;99.90;;;;;;4213804;28;19924;-69
2022/10/03 04:06:38;;;;;;;;;;;26.70;99.90;;;;;;4213922;28;19959;-70
2022/10/03 04:08:59;;;;;;;;;;;26.80;99.90;;;;;;4197180;28;19924;-70
2022/10/03 04:11:04;;;;;;;;;;;26.80;99.90;;;;;;4196987;28;19990;-72
2022/10/03 04:13:17;;;;;;;;;;;26.90;99.90;;;;;;4199363;28;19924;-71
2022/10/03 04:15:26;;;;;;;;;;;27.00;99.90;;;;;;4230658;28;19928;-70
2022/10/03 04:20:11;;;;;;;;;;;27.10;99.90;;;;;;4213650;28;19924;-72
2022/10/03 04:22:22;;;;;;;;;;;27.20;99.90;;;;;;4213564;28;20665;-71
2022/10/03 04:24:32;;;;;;;;;;;27.20;99.90;;;;;;4213978;28;19927;-72
2022/10/03 04:26:41;;;;;;;;;;;27.20;99.90;;;;;;4195790;28;20018;-71
2022/10/03 04:28:49;;;;;;;;;;;27.20;99.90;;;;;;4180306;28;20285;-69
2022/10/03 04:31:05;;;;;;;;;;;27.30;99.90;;;;;;4213370;28;19928;-71
2022/10/03 04:33:17;;;;;;;;;;;27.30;99.90;;;;;;4213468;28;19924;-70
2022/10/03 04:35:32;;;;;;;;;;;27.60;99.90;;;;;;4188664;28;19956;-71
2022/10/03 04:37:40;;;;;;;;;;;27.60;99.90;;;;;;4187592;28;20296;-71
2022/10/03 04:40:07;;;;;;;;;;;27.70;99.90;;;;;;4178957;28;19924;-70
2022/10/03 04:42:25;;;;;;;;;;;27.80;99.90;;;;;;4196956;28;19928;-69
2022/10/03 04:44:33;;;;;;;;;;;27.80;99.90;;;;;;4196425;28;20268;-68
2022/10/03 04:46:47;;;;;;;;;;;27.80;99.90;;;;;;4211283;28;19977;-71
2022/10/03 04:49:10;;;;;;;;;;;27.70;99.90;;;;;;4196208;28;19933;-69
2022/10/03 04:51:28;;;;;;;;;;;27.80;99.90;;;;;;4227340;28;19978;-69
2022/10/03 04:53:53;;;;;;;;;;;27.80;99.90;;;;;;4196195;28;19928;-69
2022/10/03 04:56:15;;;;;;;;;;;27.80;99.90;;;;;;4196225;28;20036;-70
2022/10/03 04:58:38;;;;;;;;;;;27.70;99.90;;;;;;4197327;28;20028;-71
2022/10/03 05:00:52;;;;;;;;;;;27.70;99.90;;;;;;4208648;28;19973;-69
2022/10/03 05:03:09;;;;;;;;;;;27.70;99.90;;;;;;4212305;28;19963;-70
2022/10/03 05:05:22;;;;;;;;;;;27.70;99.90;;;;;;4195766;28;19928;-70
2022/10/03 05:07:41;;;;;;;;;;;27.80;99.90;;;;;;4195482;28;20449;-70
2022/10/03 05:10:02;;;;;;;;;;;28.00;99.90;;;;;;4195720;28;19929;-70
2022/10/03 05:12:27;;;;;;;;;;;28.20;99.90;;;;;;4222415;28;20065;-71
2022/10/03 05:14:51;;;;;;;;;;;28.20;99.90;;;;;;4210778;28;19931;-70
2022/10/03 05:17:05;;;;;;;;;;;28.30;99.90;;;;;;4211565;28;20401;-69
2022/10/03 05:19:20;;;;;;;;;;;28.30;99.90;;;;;;4193581;28;20306;-70
2022/10/03 05:21:37;;;;;;;;;;;28.20;99.90;;;;;;4176032;28;19931;-70
2022/10/03 05:23:48;;;;;;;;;;;28.30;99.90;;;;;;4176749;28;19936;-69
2022/10/03 05:26:01;;;;;;;;;;;28.30;99.90;;;;;;4171635;28;19925;-69
2022/10/03 05:28:29;;;;;;;;;;;28.30;99.90;;;;;;4189069;28;19935;-70
2022/10/03 05:30:48;;;;;;;;;;;28.50;99.90;;;;;;4168033;28;19929;-70
2022/10/03 05:32:59;;;;;;;;;;;28.50;99.90;;;;;;4178627;28;19946;-69
2022/10/03 05:35:16;;;;;;;;;;;28.40;99.90;;;;;;4176621;28;19925;-70
2022/10/03 05:37:27;;;;;;;;;;;28.40;99.90;;;;;;4177765;28;19941;-72
2022/10/03 05:39:42;;;;;;;;;;;28.40;99.90;;;;;;4175854;28;19959;-69
2022/10/03 05:41:52;;;;;;;;;;;28.50;99.90;;;;;;4177563;28;19925;-70
2022/10/03 05:44:26;;;;;;;;;;;28.50;99.90;;;;;;4175641;28;19925;-70
2022/10/03 05:46:37;;;;;;;;;;;28.50;99.90;;;;;;4183779;28;19929;-70
2022/10/03 05:48:48;;;;;;;;;;;28.50;99.90;;;;;;4201327;28;19924;-72
2022/10/03 05:50:56;;;;;;;;;;;28.50;99.90;;;;;;4178469;28;19929;-70
2022/10/03 05:53:02;;;;;;;;;;;28.60;99.90;;;;;;4177627;28;20403;-71
2022/10/03 05:55:12;;;;;;;;;;;28.60;99.90;;;;;;4174208;28;19929;-70
2022/10/03 05:57:46;;;;;;;;;;;28.70;99.90;;;;;;4175699;28;20368;-69
2022/10/03 06:00:07;;;;;;;;;;;28.80;99.90;;;;;;4173535;28;19929;-70
2022/10/03 06:02:24;;;;;;;;;;;28.90;99.90;;;;;;4172480;28;19976;-70
2022/10/03 06:04:53;;;;;;;;;;;28.90;99.90;;;;;;4191695;28;19967;-70
2022/10/03 06:07:25;;;;;;;;;;;29.00;99.90;;;;;;4178198;28;19932;-68
2022/10/03 06:09:36;;;;;;;;;;;29.20;99.90;;;;;;4193665;28;19929;-70
2022/10/03 06:11:46;;;;;;;;;;;29.30;99.90;;;;;;4178023;28;20023;-70
2022/10/03 06:14:06;;;;;;;;;;;29.30;99.90;;;;;;4177223;28;20978;-70
2022/10/03 06:16:18;;;;;;;;;;;29.40;99.90;;;;;;4178947;28;19956;-71
2022/10/03 06:18:35;;;;;;;;;;;29.40;99.90;;;;;;4212058;28;19924;-71
2022/10/03 06:20:55;;;;;;;;;;;29.30;99.90;;;;;;4228912;28;19935;-71
2022/10/03 06:23:12;;;;;;;;;;;29.30;99.90;;;;;;4206460;28;19955;-70
2022/10/03 06:25:30;;;;;;;;;;;29.20;99.90;;;;;;4180717;28;19929;-70
2022/10/03 06:27:48;;;;;;;;;;;29.20;99.90;;;;;;4181579;28;19955;-69
2022/10/03 06:30:02;;;;;;;;;;;29.10;99.90;;;;;;4215604;28;19928;-70
2022/10/03 06:32:20;;;;;;;;;;;29.10;99.90;;;;;;4215554;28;20301;-71
2022/10/03 06:34:41;;;;;;;;;;;29.10;99.90;;;;;;4220926;28;19927;-70
2022/10/03 06:36:54;;;;;;;;;;;29.10;99.90;;;;;;4209453;28;20275;-70
2022/10/03 06:39:11;;;;;;;;;;;29.10;99.90;;;;;;4200413;28;19929;-70
2022/10/03 06:41:36;;;;;;;;;;;29.10;99.90;;;;;;4198391;28;19980;-71
2022/10/03 06:43:48;;;;;;;;;;;29.10;99.90;;;;;;4220204;27;19924;-71
2022/10/03 06:46:04;;;;;;;;;;;29.00;99.90;;;;;;4181130;28;19935;-69
2022/10/03 06:48:16;;;;;;;;;;;29.00;99.90;;;;;;4198354;28;19925;-69
2022/10/03 06:50:30;;;;;;;;;;;29.10;99.90;;;;;;4180997;28;20822;-69
2022/10/03 06:52:35;;;;;;;;;;;29.20;99.90;;;;;;4198363;28;19964;-70
2022/10/03 06:54:51;;;;;;;;;;;29.30;99.90;;;;;;4210886;28;19924;-71
2022/10/03 06:57:10;;;;;;;;;;;29.30;99.90;;;;;;4215214;28;19997;-70
2022/10/03 06:59:30;;;;;;;;;;;29.40;99.90;;;;;;4197242;28;20018;-71
2022/10/03 07:01:49;;;;;;;;;;;29.40;99.90;;;;;;4213666;28;19939;-70
2022/10/03 07:04:03;;;;;;;;;;;29.50;99.90;;;;;;4212655;28;19971;-71
2022/10/03 07:06:16;;;;;;;;;;;29.40;99.90;;;;;;4196283;28;19967;-72
2022/10/03 07:08:34;;;;;;;;;;;29.50;99.90;;;;;;4194599;28;19939;-68
2022/10/03 07:10:45;;;;;;;;;;;29.50;99.90;;;;;;4214747;28;19924;-69
2022/10/03 07:13:17;;;;;;;;;;;29.50;99.90;;;;;;4215241;28;19928;-69
2022/10/03 07:15:21;;;;;;;;;;;29.50;99.90;;;;;;4196886;28;20027;-72
2022/10/03 07:18:05;;;;;;;;;;;29.60;99.90;;;;;;4181754;28;19955;-72
2022/10/03 07:20:26;;;;;;;;;;;29.60;99.90;;;;;;4234319;27;19927;-73
2022/10/03 07:22:39;;;;;;;;;;;29.50;99.90;;;;;;4213689;28;19975;-73
2022/10/03 07:24:50;;;;;;;;;;;29.50;99.90;;;;;;4213761;28;19959;-73
2022/10/03 07:26:57;;;;;;;;;;;29.50;99.90;;;;;;4246780;27;19976;-73
2022/10/03 07:29:08;;;;;;;;;;;29.40;99.90;;;;;;4210331;28;20030;-72
2022/10/03 07:31:25;;;;;;;;;;;29.50;99.90;;;;;;4215126;28;19928;-74
2022/10/03 07:33:35;;;;;;;;;;;29.50;99.90;;;;;;4222161;28;19928;-74
2022/10/03 07:40:44;;;;;;;;;;;29.80;99.90;;;;;;4211320;28;19940;-73
2022/10/03 07:42:48;;;;;;;;;;;29.80;99.90;;;;;;4192241;28;19931;-73
2022/10/03 07:45:08;;;;;;;;;;;29.80;99.90;;;;;;4214619;28;19928;-73
2022/10/03 07:47:27;;;;;;;;;;;29.80;99.90;;;;;;4197143;28;19978;-74
2022/10/03 07:49:50;;;;;;;;;;;29.90;99.90;;;;;;4214487;28;19934;-74
2022/10/03 07:52:08;;;;;;;;;;;29.90;99.90;;;;;;4213367;28;19928;-74
2022/10/03 07:54:14;;;;;;;;;;;30.00;99.90;;;;;;4211235;28;19924;-75
2022/10/03 07:56:31;;;;;;;;;;;30.10;99.90;;;;;;4214320;28;20015;-75
2022/10/03 07:58:36;;;;;;;;;;;30.10;99.90;;;;;;4215616;28;19932;-70
2022/10/03 08:00:52;;;;;;;;;;;30.20;99.90;;;;;;4214873;28;19924;-74
2022/10/03 08:02:57;;;;;;;;;;;30.20;99.90;;;;;;4203184;28;20007;-74
2022/10/03 08:05:16;;;;;;;;;;;30.20;99.90;;;;;;4232768;28;19923;-74
2022/10/03 08:07:33;;;;;;;;;;;30.30;99.90;;;;;;4232662;28;19931;-76
2022/10/03 08:09:43;;;;;;;;;;;30.30;99.90;;;;;;4232742;28;20283;-75
2022/10/03 08:12:01;;;;;;;;;;;30.40;99.90;;;;;;4201488;28;19924;-74
2022/10/03 08:14:18;;;;;;;;;;;30.40;99.90;;;;;;4214765;28;19924;-74
2022/10/03 08:16:39;;;;;;;;;;;30.40;99.90;;;;;;4197342;28;19939;-74
2022/10/03 08:18:44;;;;;;;;;;;30.30;99.90;;;;;;4210775;28;19924;-75
2022/10/03 08:20:49;;;;;;;;;;;30.30;99.90;;;;;;4197645;28;20019;-75
2022/10/03 08:23:13;;;;;;;;;;;30.40;99.90;;;;;;4214561;28;19931;-75
2022/10/03 08:25:26;;;;;;;;;;;30.30;99.90;;;;;;4203974;28;19993;-75
2022/10/03 08:27:39;;;;;;;;;;;30.30;99.90;;;;;;4213346;28;20027;-74
2022/10/03 08:29:55;;;;;;;;;;;30.10;99.90;;;;;;4197901;28;20370;-74
2022/10/03 08:32:12;;;;;;;;;;;30.00;99.90;;;;;;4212762;28;19928;-74
2022/10/03 08:34:50;;;;;;;;;;;30.00;99.90;;;;;;4193605;28;19935;-74
2022/10/03 08:37:05;;;;;;;;;;;30.00;99.90;;;;;;4212178;28;19928;-73
2022/10/03 08:39:25;;;;;;;;;;;29.90;99.90;;;;;;4186971;28;19975;-73
2022/10/03 08:41:40;;;;;;;;;;;29.80;99.90;;;;;;4195734;28;20477;-73
2022/10/03 08:43:49;;;;;;;;;;;29.60;99.90;;;;;;4213069;28;20310;-74
2022/10/03 08:46:03;;;;;;;;;;;29.70;99.90;;;;;;4210113;28;19994;-74
2022/10/03 08:48:08;;;;;;;;;;;29.60;99.90;;;;;;4211061;28;20359;-74
2022/10/03 08:50:26;;;;;;;;;;;29.60;99.90;;;;;;4196344;28;20382;-74
2022/10/03 08:52:43;;;;;;;;;;;29.70;99.90;;;;;;4180033;28;19924;-75
2022/10/03 08:54:51;;;;;;;;;;;29.70;99.90;;;;;;4212260;28;19931;-75
2022/10/03 08:56:59;;;;;;;;;;;29.70;99.90;;;;;;4196715;28;20438;-75
2022/10/03 08:59:23;;;;;;;;;;;29.70;99.90;;;;;;4189936;28;19925;-75
2022/10/03 09:01:32;;;;;;;;;;;29.70;99.90;;;;;;4212650;28;19924;-75
2022/10/03 09:03:57;;;;;;;;;;;29.60;99.90;;;;;;4214240;28;20325;-74
2022/10/03 09:06:02;;;;;;;;;;;29.50;99.90;;;;;;4212564;28;20595;-77
2022/10/03 09:08:23;;;;;;;;;;;29.40;99.90;;;;;;4212948;28;19946;-75
2022/10/03 09:10:34;;;;;;;;;;;29.30;99.90;;;;;;4195266;28;19947;-72
2022/10/03 09:12:47;;;;;;;;;;;29.20;99.90;;;;;;4196248;28;19950;-74
2022/10/03 09:14:56;;;;;;;;;;;29.00;99.90;;;;;;4213271;28;19959;-75
2022/10/03 09:17:25;;;;;;;;;;;29.00;99.90;;;;;;4205486;28;19924;-74
2022/10/03 09:19:48;;;;;;;;;;;28.90;99.90;;;;;;4196416;28;19924;-76
2022/10/03 09:22:02;;;;;;;;;;;28.90;99.90;;;;;;4196180;28;19932;-75
2022/10/03 09:24:19;;;;;;;;;;;29.00;99.90;;;;;;4178848;28;19933;-75
2022/10/03 09:26:37;;;;;;;;;;;28.90;99.90;;;;;;4178205;28;19947;-73
2022/10/03 09:28:50;;;;;;;;;;;28.90;99.90;;;;;;4206888;28;19924;-76
2022/10/03 09:31:04;;;;;;;;;;;28.90;99.90;;;;;;4213048;28;20497;-75
2022/10/03 09:33:21;;;;;;;;;;;28.80;99.90;;;;;;4195148;28;20087;-74
2022/10/03 09:35:39;;;;;;;;;;;28.80;99.90;;;;;;4208280;28;20023;-74
2022/10/03 09:38:04;;;;;;;;;;;28.80;99.90;;;;;;4218327;28;20336;-74
2022/10/03 09:40:19;;;;;;;;;;;28.80;99.90;;;;;;4194832;28;19925;-74
2022/10/03 09:42:37;;;;;;;;;;;28.80;99.90;;;;;;4195034;28;19968;-75
2022/10/03 09:44:54;;;;;;;;;;;28.80;99.90;;;;;;4195214;28;20351;-75
2022/10/03 09:47:21;;;;;;;;;;;28.80;99.90;;;;;;4211756;28;20345;-75
2022/10/03 09:49:38;;;;;;;;;;;28.80;99.90;;;;;;4194761;28;20264;-74
2022/10/03 09:52:00;;;;;;;;;;;28.80;99.90;;;;;;4208886;28;19931;-75
2022/10/03 09:54:18;;;;;;;;;;;28.80;99.90;;;;;;4195583;28;20429;-76
2022/10/03 09:56:39;;;;;;;;;;;28.80;99.90;;;;;;4195266;28;19932;-75
2022/10/03 09:58:52;;;;;;;;;;;28.80;99.90;;;;;;4218261;28;19924;-78
2022/10/03 10:01:09;;;;;;;;;;;28.80;99.90;;;;;;4214110;28;19974;-78
2022/10/03 10:03:24;;;;;;;;;;;28.80;99.90;;;;;;4209721;28;20349;-77
2022/10/03 10:05:44;;;;;;;;;;;28.80;99.90;;;;;;4214329;28;19928;-77
2022/10/03 10:07:54;;;;;;;;;;;28.80;99.90;;;;;;4213608;28;20023;-77
2022/10/03 10:10:02;;;;;;;;;;;28.80;99.90;;;;;;4161889;28;19925;-77
2022/10/03 10:12:19;;;;;;;;;;;28.70;99.90;;;;;;4196196;28;19960;-76
2022/10/03 10:14:28;;;;;;;;;;;28.60;99.90;;;;;;4196495;28;19928;-77
2022/10/03 10:16:46;;;;;;;;;;;28.60;99.90;;;;;;4208263;28;19928;-76
2022/10/03 10:18:58;;;;;;;;;;;28.60;99.90;;;;;;4213757;28;19975;-77
2022/10/03 10:21:07;;;;;;;;;;;28.60;99.90;;;;;;4213275;28;19927;-77
2022/10/03 10:23:30;;;;;;;;;;;28.60;99.90;;;;;;4212651;28;19975;-77
2022/10/03 10:25:46;;;;;;;;;;;28.60;99.90;;;;;;4195404;28;19959;-78
2022/10/03 10:28:03;;;;;;;;;;;28.60;99.90;;;;;;4213506;28;19951;-77
2022/10/03 10:30:13;;;;;;;;;;;28.50;99.90;;;;;;4229776;28;19924;-77
2022/10/03 10:32:31;;;;;;;;;;;28.60;99.90;;;;;;4230329;28;19924;-77
2022/10/03 10:34:51;;;;;;;;;;;28.50;99.90;;;;;;4211998;28;19971;-76
2022/10/03 10:36:57;;;;;;;;;;;28.50;99.90;;;;;;4230553;28;19959;-76
2022/10/03 10:39:16;;;;;;;;;;;28.50;99.90;;;;;;4222108;28;19939;-75
2022/10/03 10:41:28;;;;;;;;;;;28.40;99.90;;;;;;4194802;28;19928;-73
2022/10/03 10:43:49;;;;;;;;;;;28.40;99.90;;;;;;4195384;28;19925;-74
2022/10/03 10:46:04;;;;;;;;;;;28.40;99.90;;;;;;4195784;28;20321;-75
2022/10/03 10:48:20;;;;;;;;;;;28.30;99.90;;;;;;4212006;28;19924;-74
2022/10/03 10:50:45;;;;;;;;;;;28.30;99.90;;;;;;4195879;28;19928;-76
2022/10/03 10:53:04;;;;;;;;;;;28.30;99.90;;;;;;4212118;28;19924;-75
2022/10/03 10:55:21;;;;;;;;;;;28.30;99.90;;;;;;4195202;28;20738;-74
2022/10/03 10:57:31;;;;;;;;;;;28.30;99.90;;;;;;4195767;28;19928;-74
2022/10/03 10:59:52;;;;;;;;;;;28.30;99.90;;;;;;4211495;28;19932;-76
2022/10/03 11:02:00;;;;;;;;;;;28.30;99.90;;;;;;4194822;28;19928;-73
2022/10/03 11:04:18;;;;;;;;;;;28.30;99.90;;;;;;4211837;28;19978;-72
2022/10/03 11:06:29;;;;;;;;;;;28.20;99.90;;;;;;4198864;28;20367;-72
2022/10/03 11:08:48;;;;;;;;;;;28.20;99.90;;;;;;4180385;28;20366;-73
2022/10/03 11:11:07;;;;;;;;;;;28.20;99.90;;;;;;4213453;28;19928;-74
2022/10/03 11:13:26;;;;;;;;;;;28.20;99.90;;;;;;4214953;28;19925;-74
2022/10/03 11:15:46;;;;;;;;;;;28.20;99.90;;;;;;4214228;28;19924;-74
2022/10/03 11:18:07;;;;;;;;;;;28.20;99.90;;;;;;4198763;28;19959;-74
2022/10/03 11:20:24;;;;;;;;;;;28.20;99.90;;;;;;4186123;28;19935;-74
2022/10/03 11:22:41;;;;;;;;;;;28.20;99.90;;;;;;4224353;28;20351;-75
2022/10/03 11:24:58;;;;;;;;;;;28.10;99.90;;;;;;4227303;28;19924;-73
2022/10/03 11:27:13;;;;;;;;;;;28.10;99.90;;;;;;4230531;28;19973;-75
2022/10/03 11:29:30;;;;;;;;;;;28.10;99.90;;;;;;4214565;28;20011;-74
2022/10/03 11:31:46;;;;;;;;;;;28.10;99.90;;;;;;4209743;28;19935;-74
2022/10/03 11:33:57;;;;;;;;;;;28.10;99.90;;;;;;4214551;28;19936;-73
2022/10/03 11:36:18;;;;;;;;;;;28.00;99.90;;;;;;4215011;28;19928;-73
2022/10/03 11:38:27;;;;;;;;;;;28.00;99.90;;;;;;4214558;28;19935;-74
2022/10/03 11:40:44;;;;;;;;;;;28.00;99.90;;;;;;4177551;28;19947;-72
2022/10/03 11:42:53;;;;;;;;;;;28.00;99.90;;;;;;4213727;28;19939;-74
2022/10/03 11:45:05;;;;;;;;;;;28.00;99.90;;;;;;4196347;28;20027;-74
2022/10/03 11:47:21;;;;;;;;;;;28.00;99.90;;;;;;4196411;28;20030;-75
2022/10/03 11:49:53;;;;;;;;;;;28.00;99.90;;;;;;4197830;28;20441;-73
2022/10/03 11:52:13;;;;;;;;;;;28.00;99.90;;;;;;4198257;28;19935;-73
2022/10/03 11:54:22;;;;;;;;;;;28.00;99.90;;;;;;4214339;28;19932;-74
2022/10/03 11:56:43;;;;;;;;;;;27.90;99.90;;;;;;4199208;28;19924;-75
2022/10/03 11:58:57;;;;;;;;;;;27.90;99.90;;;;;;4197843;28;20009;-73
2022/10/03 12:01:16;;;;;;;;;;;27.90;99.90;;;;;;4194247;28;20768;-74
2022/10/03 12:03:25;;;;;;;;;;;27.90;99.90;;;;;;4182004;28;20458;-73
2022/10/03 12:05:39;;;;;;;;;;;27.90;99.90;;;;;;4211280;28;19928;-73
2022/10/03 12:10:31;;;;;;;;;;;27.90;99.90;;;;;;4211036;28;19936;-72
2022/10/03 12:12:47;;;;;;;;;;;27.90;99.90;;;;;;4218763;28;20672;-74
2022/10/03 12:15:04;;;;;;;;;;;27.90;99.90;;;;;;4172902;28;19933;-73
2022/10/03 12:17:22;;;;;;;;;;;27.90;99.90;;;;;;4192338;28;19959;-72
2022/10/03 12:19:42;;;;;;;;;;;27.90;99.90;;;;;;4191037;28;19928;-72
2022/10/03 12:21:54;;;;;;;;;;;27.90;99.90;;;;;;4191822;28;19928;-73
2022/10/03 12:24:13;;;;;;;;;;;27.90;99.90;;;;;;4191855;28;20397;-74
2022/10/03 12:26:25;;;;;;;;;;;27.80;99.90;;;;;;4193754;28;20038;-72
2022/10/03 12:28:33;;;;;;;;;;;27.80;99.90;;;;;;4192739;28;20005;-73
2022/10/03 12:30:41;;;;;;;;;;;27.80;99.90;;;;;;4193840;28;19939;-73
2022/10/03 12:32:58;;;;;;;;;;;27.80;99.90;;;;;;4192727;28;19964;-72
2022/10/03 12:35:13;;;;;;;;;;;27.80;99.90;;;;;;4193369;28;19935;-73
2022/10/03 12:37:28;;;;;;;;;;;27.60;99.90;;;;;;4194108;28;20011;-73
2022/10/03 12:39:47;;;;;;;;;;;27.60;99.90;;;;;;4204859;28;19928;-72
2022/10/03 12:42:04;;;;;;;;;;;27.50;99.90;;;;;;4225200;28;19928;-73
2022/10/03 12:44:27;;;;;;;;;;;27.40;99.90;;;;;;4194197;28;19928;-72
2022/10/03 12:46:45;;;;;;;;;;;27.20;99.90;;;;;;4193730;28;19968;-73
2022/10/03 12:48:56;;;;;;;;;;;27.20;99.90;;;;;;4191941;28;20709;-74
2022/10/03 12:51:14;;;;;;;;;;;27.30;99.90;;;;;;4193801;28;20422;-76
2022/10/03 12:53:35;;;;;;;;;;;27.30;99.90;;;;;;4194231;28;19968;-75
2022/10/03 12:55:58;;;;;;;;;;;27.30;99.90;;;;;;4194043;28;19974;-75
2022/10/03 12:58:13;;;;;;;;;;;27.40;99.90;;;;;;4193780;28;19970;-76
2022/10/03 13:00:26;;;;;;;;;;;27.50;99.90;;;;;;4188376;28;19929;-76
2022/10/03 13:02:54;;;;;;;;;;;27.50;99.90;;;;;;4209341;28;19928;-74
2022/10/03 13:05:14;;;;;;;;;;;27.60;99.90;;;;;;4191101;28;20015;-75
2022/10/03 13:07:30;;;;;;;;;;;27.40;99.90;;;;;;4190738;28;20513;-75
2022/10/03 13:09:44;;;;;;;;;;;27.40;99.90;;;;;;4188028;28;19964;-75
2022/10/03 13:11:52;;;;;;;;;;;27.40;99.90;;;;;;4177218;28;19929;-76
2022/10/03 13:14:05;;;;;;;;;;;27.40;99.90;;;;;;4193858;28;19928;-75
2022/10/03 13:16:13;;;;;;;;;;;27.50;99.90;;;;;;4193028;28;19928;-76
2022/10/03 13:18:18;;;;;;;;;;;27.50;99.90;;;;;;4192071;28;19990;-74
2022/10/03 13:20:31;;;;;;;;;;;27.60;99.90;;;;;;4191504;28;19935;-74
2022/10/03 13:22:44;;;;;;;;;;;27.60;99.90;;;;;;4201320;28;19943;-74